createdAt,value
2018-09-28T00:00:37.844Z,6
2018-09-28T00:01:37.918Z,6.5
2018-09-28T00:02:55.791Z,6.1
2018-09-28T00:03:37.931Z,9.6
2018-09-28T00:04:38.101Z,6
2018-09-28T00:05:38.165Z,6.7
2018-09-28T00:06:38.109Z,6.8
2018-09-28T00:08:38.449Z,6.7
2018-09-28T00:09:38.540Z,5.5
2018-09-28T00:10:38.493Z,7.7
2018-09-28T00:11:38.618Z,6.5
2018-09-28T00:12:38.837Z,7
2018-09-28T00:13:38.831Z,7.6
2018-09-28T00:14:38.775Z,9.4
2018-09-28T00:15:38.866Z,6.9
2018-09-28T00:16:39.016Z,5.8
2018-09-28T00:17:39.231Z,6.1
2018-09-28T00:18:39.194Z,6.3
2018-09-28T00:19:39.314Z,6.3
2018-09-28T00:20:39.576Z,6.5
2018-09-28T00:21:39.675Z,6.5
2018-09-28T00:22:39.660Z,6.8
2018-09-28T00:23:39.847Z,6.8
2018-09-28T00:24:57.848Z,6.5
2018-09-28T00:25:39.979Z,6.6
2018-09-28T00:26:39.918Z,6.6
2018-09-28T00:28:40.075Z,6.9
2018-09-28T00:29:40.042Z,6.1
2018-09-28T00:30:58.047Z,7.5
2018-09-28T00:31:40.324Z,7.2
2018-09-28T00:32:40.391Z,7
2018-09-28T00:33:40.326Z,6.8
2018-09-28T00:34:58.511Z,8.1
2018-09-28T00:35:40.533Z,7.4
2018-09-28T00:37:40.524Z,6.6
2018-09-28T00:38:40.819Z,5.8
2018-09-28T00:39:40.924Z,6
2018-09-28T00:40:41.966Z,6.5
2018-09-28T00:41:40.910Z,6.7
2018-09-28T00:42:41.054Z,6.6
2018-09-28T00:44:41.610Z,6.4
2018-09-28T00:45:41.208Z,6.9
2018-09-28T00:46:41.445Z,6.9
2018-09-28T00:47:41.446Z,8
2018-09-28T00:48:41.371Z,6.8
2018-09-28T00:49:41.542Z,6.6
2018-09-28T00:50:41.566Z,7.4
2018-09-28T00:51:41.521Z,6.9
2018-09-28T00:52:41.645Z,8.2
2018-09-28T00:53:41.795Z,6.6
2018-09-28T00:54:41.986Z,7.8
2018-09-28T00:55:41.938Z,6.8
2018-09-28T00:56:59.944Z,7.5
2018-09-28T00:57:42.059Z,8.4
2018-09-28T00:59:00.101Z,6.6
2018-09-28T00:59:42.461Z,6.4
2018-09-28T01:00:42.423Z,7.2
2018-09-28T01:01:42.536Z,6.8
2018-09-28T01:03:00.597Z,8.2
2018-09-28T01:03:42.801Z,8.4
2018-09-28T01:04:43.083Z,10
2018-09-28T01:05:42.893Z,7.8
2018-09-28T01:07:01.083Z,8
2018-09-28T01:07:43.164Z,7.5
2018-09-28T01:08:43.270Z,8.5
2018-09-28T01:10:43.459Z,7.5
2018-09-28T01:11:43.494Z,7.3
2018-09-28T01:12:43.439Z,7.6
2018-09-28T01:13:43.519Z,7.3
2018-09-28T01:14:43.774Z,7.1
2018-09-28T01:15:43.775Z,7
2018-09-28T01:16:43.715Z,7.9
2018-09-28T01:17:43.852Z,7.8
2018-09-28T01:18:44.187Z,6.5
2018-09-28T01:20:01.873Z,6.7
2018-09-28T01:20:44.041Z,7.1
2018-09-28T01:21:44.252Z,6.4
2018-09-28T01:22:44.270Z,7.2
2018-09-28T01:23:44.190Z,7.9
2018-09-28T01:24:44.294Z,6.5
2018-09-28T01:25:44.631Z,6.4
2018-09-28T01:26:44.523Z,7.1
2018-09-28T01:27:44.502Z,7.7
2018-09-28T01:28:44.641Z,7.7
2018-09-28T01:30:02.659Z,12
2018-09-28T01:30:44.792Z,10.1
2018-09-28T01:32:02.736Z,7.7
2018-09-28T01:32:44.807Z,10.7
2018-09-28T01:33:44.933Z,8.2
2018-09-28T01:35:02.820Z,8.4
2018-09-28T01:35:44.981Z,8.7
2018-09-28T01:37:45.356Z,8.4
2018-09-28T01:38:45.302Z,7.7
2018-09-28T01:39:45.456Z,7.3
2018-09-28T01:40:45.598Z,7.2
2018-09-28T01:41:45.684Z,8.1
2018-09-28T01:42:45.615Z,8.8
2018-09-28T01:44:45.883Z,7.3
2018-09-28T01:45:46.034Z,7.8
2018-09-28T01:46:45.926Z,9.2
2018-09-28T01:47:46.025Z,8.7
2018-09-28T01:48:46.322Z,6.7
2018-09-28T01:49:46.434Z,7.6
2018-09-28T01:50:46.179Z,8.5
2018-09-28T01:52:04.237Z,9
2018-09-28T01:52:46.448Z,8.3
2018-09-28T01:53:46.460Z,6.7
2018-09-28T01:54:46.384Z,6.7
2018-09-28T01:55:46.488Z,8.5
2018-09-28T01:56:46.910Z,7.8
2018-09-28T01:57:46.672Z,7
2018-09-28T01:58:46.612Z,8.1
2018-09-28T01:59:46.774Z,7.7
2018-09-28T02:00:46.717Z,8.1
2018-09-28T02:01:46.918Z,6.9
2018-09-28T02:02:46.938Z,7.3
2018-09-28T02:03:48.256Z,7.9
2018-09-28T02:04:47.078Z,6.1
2018-09-28T02:05:47.027Z,6.1
2018-09-28T02:06:47.133Z,6.7
2018-09-28T02:07:47.356Z,8.3
2018-09-28T02:08:47.364Z,8.2
2018-09-28T02:09:47.286Z,8.3
2018-09-28T02:10:47.431Z,7.1
2018-09-28T02:11:47.691Z,6.9
2018-09-28T02:12:47.764Z,7.1
2018-09-28T02:13:47.705Z,7.1
2018-09-28T02:14:47.805Z,7.2
2018-09-28T02:15:48.015Z,8.1
2018-09-28T02:16:47.983Z,8.2
2018-09-28T02:17:47.928Z,7.7
2018-09-28T02:18:48.117Z,8.2
2018-09-28T02:20:06.000Z,7.9
2018-09-28T02:20:49.229Z,7.1
2018-09-28T02:21:48.169Z,7.2
2018-09-28T02:22:48.498Z,7.9
2018-09-28T02:23:48.353Z,6.1
2018-09-28T02:24:48.306Z,6.7
2018-09-28T02:25:48.423Z,7.5
2018-09-28T02:26:48.605Z,7.5
2018-09-28T02:27:48.658Z,6.4
2018-09-28T02:28:48.596Z,7.2
2018-09-28T02:29:48.804Z,7.3
2018-09-28T02:30:48.843Z,7.3
2018-09-28T02:31:48.796Z,8.1
2018-09-28T02:32:48.964Z,7
2018-09-28T02:33:48.987Z,6.9
2018-09-28T02:35:06.859Z,7.8
2018-09-28T02:36:06.879Z,7
2018-09-28T02:36:49.007Z,7.7
2018-09-28T02:37:49.186Z,7.1
2018-09-28T02:38:49.233Z,7.2
2018-09-28T02:39:49.187Z,9
2018-09-28T02:40:49.283Z,6.3
2018-09-28T02:41:49.496Z,5.9
2018-09-28T02:43:07.557Z,7
2018-09-28T02:43:49.514Z,6.9
2018-09-28T02:44:49.627Z,6.7
2018-09-28T02:45:49.753Z,7.7
2018-09-28T02:46:49.953Z,6.9
2018-09-28T02:47:49.896Z,8.1
2018-09-28T02:48:50.000Z,7.7
2018-09-28T02:49:50.180Z,6.6
2018-09-28T02:51:50.174Z,6.9
2018-09-28T02:52:50.317Z,6
2018-09-28T02:53:50.717Z,6.3
2018-09-28T02:54:50.625Z,6.3
2018-09-28T02:55:50.574Z,6.5
2018-09-28T02:56:50.755Z,6.2
2018-09-28T02:57:50.937Z,6.8
2018-09-28T02:58:51.055Z,7.7
2018-09-28T02:59:50.978Z,8.3
2018-09-28T03:00:51.082Z,7.9
2018-09-28T03:01:51.837Z,7.3
2018-09-28T03:02:51.454Z,9.5
2018-09-28T03:03:51.463Z,6.5
2018-09-28T03:05:09.355Z,8.6
2018-09-28T03:05:51.542Z,8.3
2018-09-28T03:06:51.539Z,8
2018-09-28T03:07:51.520Z,7.6
2018-09-28T03:08:51.708Z,8.4
2018-09-28T03:09:51.775Z,8.6
2018-09-28T03:10:51.708Z,8.7
2018-09-28T03:11:51.801Z,8.3
2018-09-28T03:12:51.999Z,7.5
2018-09-28T03:13:52.063Z,7.9
2018-09-28T03:14:52.061Z,7.8
2018-09-28T03:15:52.168Z,7.7
2018-09-28T03:17:52.431Z,9.4
2018-09-28T03:18:52.344Z,8.3
2018-09-28T03:19:52.565Z,9.3
2018-09-28T03:20:52.559Z,9
2018-09-28T03:21:52.833Z,7.7
2018-09-28T03:22:52.768Z,8
2018-09-28T03:23:52.972Z,10.3
2018-09-28T03:24:52.942Z,8.8
2018-09-28T03:25:53.332Z,8
2018-09-28T03:26:53.042Z,8.6
2018-09-28T03:27:53.263Z,8.7
2018-09-28T03:29:11.246Z,8.5
2018-09-28T03:29:53.269Z,8.8
2018-09-28T03:30:53.198Z,7.9
2018-09-28T03:31:53.444Z,8.6
2018-09-28T03:32:53.555Z,8.1
2018-09-28T03:33:53.521Z,8.3
2018-09-28T03:34:53.632Z,9.4
2018-09-28T03:35:53.808Z,6.9
2018-09-28T03:36:53.894Z,8
2018-09-28T03:37:53.854Z,9.9
2018-09-28T03:38:54.000Z,7.9
2018-09-28T03:39:54.239Z,7.1
2018-09-28T03:40:54.388Z,7.7
2018-09-28T03:41:54.350Z,8.5
2018-09-28T03:42:54.467Z,7.2
2018-09-28T03:43:54.648Z,9.2
2018-09-28T03:44:54.822Z,9
2018-09-28T03:45:54.612Z,6.8
2018-09-28T03:47:54.787Z,7.8
2018-09-28T03:48:54.950Z,8.8
2018-09-28T03:49:54.868Z,10.5
2018-09-28T03:50:54.990Z,8.5
2018-09-28T03:51:55.113Z,7.2
2018-09-28T03:52:55.280Z,8.2
2018-09-28T03:53:55.489Z,11.3
2018-09-28T03:54:55.455Z,8.1
2018-09-28T03:55:55.644Z,9.3
2018-09-28T03:56:55.735Z,7.7
2018-09-28T03:57:55.730Z,8.4
2018-09-28T03:59:55.976Z,7.4
2018-09-28T04:00:56.000Z,9.1
2018-09-28T04:01:56.158Z,7.7
2018-09-28T04:02:56.175Z,8.3
2018-09-28T04:03:56.434Z,7.2
2018-09-28T04:04:56.607Z,9.9
2018-09-28T04:05:56.436Z,7.9
2018-09-28T04:07:56.822Z,9.3
2018-09-28T04:09:14.800Z,7.8
2018-09-28T04:09:56.819Z,8.9
2018-09-28T04:10:56.922Z,8.5
2018-09-28T04:11:57.160Z,8.4
2018-09-28T04:12:57.360Z,9.3
2018-09-28T04:13:57.184Z,10.1
2018-09-28T04:14:58.475Z,10.5
2018-09-28T04:15:58.425Z,8
2018-09-28T04:16:57.490Z,8.4
2018-09-28T04:17:57.435Z,8.6
2018-09-28T04:18:57.681Z,8.2
2018-09-28T04:19:57.768Z,8.5
2018-09-28T04:20:57.879Z,9.6
2018-09-28T04:21:57.939Z,8.9
2018-09-28T04:23:15.881Z,8.7
2018-09-28T04:23:57.991Z,8.3
2018-09-28T04:25:58.062Z,10.2
2018-09-28T04:27:16.210Z,8.4
2018-09-28T04:27:58.339Z,8.4
2018-09-28T04:28:58.282Z,9.8
2018-09-28T04:30:58.678Z,7.7
2018-09-28T04:31:58.738Z,10.4
2018-09-28T04:32:58.713Z,9
2018-09-28T04:33:58.845Z,8.5
2018-09-28T04:34:59.037Z,8.4
2018-09-28T04:35:59.306Z,9.2
2018-09-28T04:36:59.178Z,9.1
2018-09-28T04:39:17.157Z,9.8
2018-09-28T04:39:59.459Z,8.4
2018-09-28T04:40:59.484Z,10
2018-09-28T04:41:59.654Z,8.4
2018-09-28T04:42:59.646Z,9
2018-09-28T04:43:59.962Z,8.1
2018-09-28T04:45:00.008Z,7.9
2018-09-28T04:46:17.835Z,7.6
2018-09-28T04:48:00.105Z,9.4
2018-09-28T04:49:00.148Z,8.1
2018-09-28T04:50:00.186Z,10
2018-09-28T04:51:00.321Z,7.2
2018-09-28T04:52:00.281Z,9.7
2018-09-28T04:53:00.218Z,7.8
2018-09-28T04:55:40.860Z,8.2
2018-09-28T04:57:21.986Z,7.8
2018-09-28T04:57:56.116Z,8.4
2018-09-28T04:58:38.042Z,9
2018-09-28T05:00:56.059Z,7.9
2018-09-28T05:01:56.324Z,9.8
2018-09-28T05:02:56.251Z,9.6
2018-09-28T05:03:38.392Z,8.2
2018-09-28T05:04:56.381Z,8.7
2018-09-28T05:05:56.599Z,9
2018-09-28T05:26:02.056Z,8.9
2018-09-28T05:26:53.794Z,8.9
2018-09-28T05:27:18.052Z,9.3
2018-09-28T05:28:18.202Z,9.8
2018-09-28T05:29:18.295Z,11.2
2018-09-28T05:30:36.242Z,9.4
2018-09-28T05:31:18.515Z,9.8
2018-09-28T05:32:36.639Z,10.4
2018-09-28T05:34:36.610Z,12.8
2018-09-28T05:35:18.943Z,14.2
2018-09-28T05:36:36.805Z,13
2018-09-28T05:37:19.139Z,11.2
2018-09-28T05:38:18.973Z,13.9
2018-09-28T05:39:19.224Z,13.9
2018-09-28T05:40:19.276Z,12.9
2018-09-28T05:41:37.129Z,12.6
2018-09-28T05:42:19.231Z,14
2018-09-28T05:43:37.546Z,12.8
2018-09-28T05:44:19.702Z,11.8
2018-09-28T05:45:37.445Z,12.1
2018-09-28T05:46:19.665Z,11.7
2018-09-28T05:47:19.831Z,10.6
2018-09-28T05:48:19.915Z,10.3
2018-09-28T05:49:19.876Z,11.9
2018-09-28T05:50:37.877Z,12.1
2018-09-28T05:51:20.287Z,10.7
2018-09-28T05:52:20.352Z,10.7
2018-09-28T05:53:20.313Z,10.4
2018-09-28T05:54:20.479Z,11.2
2018-09-28T05:56:20.817Z,11.8
2018-09-28T05:57:20.807Z,9.8
2018-09-28T05:58:20.907Z,9.7
2018-09-28T06:00:39.099Z,11.7
2018-09-28T06:01:21.117Z,9.8
2018-09-28T06:02:21.339Z,11.4
2018-09-28T06:03:21.352Z,11.7
2018-09-28T06:05:21.806Z,11.4
2018-09-28T06:06:21.701Z,13.5
2018-09-28T06:07:21.833Z,15.6
2018-09-28T06:08:21.995Z,16.200001
2018-09-28T06:09:22.269Z,19.700001
2018-09-28T06:10:22.268Z,16.200001
2018-09-28T06:11:22.236Z,15.9
2018-09-28T06:12:22.494Z,14.9
2018-09-28T06:13:22.587Z,11.5
2018-09-28T06:14:22.521Z,13.1
2018-09-28T06:15:22.662Z,11
2018-09-28T06:16:58.683Z,9.8
2018-09-28T06:17:22.928Z,11.6
2018-09-28T06:18:22.905Z,12.9
2018-09-28T06:19:23.018Z,14.9
2018-09-28T06:20:23.194Z,13.7
2018-09-28T06:21:58.975Z,17.5
2018-09-28T06:22:23.216Z,14.6
2018-09-28T06:23:23.427Z,14.7
2018-09-28T06:24:23.457Z,14.7
2018-09-28T06:25:23.465Z,14.4
2018-09-28T06:26:23.456Z,14.9
2018-09-28T06:27:23.548Z,15.5
2018-09-28T06:29:41.626Z,15.8
2018-09-28T06:30:23.787Z,13.6
2018-09-28T06:31:23.995Z,11.8
2018-09-28T06:32:41.688Z,18
2018-09-28T06:33:41.694Z,13.4
2018-09-28T06:34:24.810Z,13.4
2018-09-28T06:35:23.960Z,13.5
2018-09-28T06:36:24.171Z,13.9
2018-09-28T06:37:24.153Z,12.7
2018-09-28T06:38:42.361Z,14.9
2018-09-28T06:39:42.269Z,12
2018-09-28T06:40:24.352Z,13.8
2018-09-28T06:41:24.492Z,13.6
2018-09-28T06:42:24.778Z,13.8
2018-09-28T06:43:24.787Z,12.9
2018-09-28T06:44:24.738Z,12.8
2018-09-28T06:45:24.837Z,15.3
2018-09-28T06:46:25.096Z,14.5
2018-09-28T06:47:42.961Z,17.200001
2018-09-28T06:48:25.139Z,15
2018-09-28T06:49:25.171Z,15.6
2018-09-28T06:50:43.158Z,15.1
2018-09-28T06:51:25.869Z,15.9
2018-09-28T06:52:25.751Z,13.9
2018-09-28T06:53:25.720Z,10.3
2018-09-28T06:54:25.865Z,13.9
2018-09-28T06:55:26.021Z,12
2018-09-28T06:56:44.149Z,11.5
2018-09-28T06:57:26.092Z,12.4
2018-09-28T06:58:26.210Z,15.4
2018-09-28T07:01:44.605Z,11.3
2018-09-28T07:02:26.712Z,13.2
2018-09-28T07:03:44.773Z,12.7
2018-09-28T07:04:26.994Z,13
2018-09-28T07:05:26.956Z,10.2
2018-09-28T07:06:27.132Z,12.6
2018-09-28T07:07:27.291Z,11.5
2018-09-28T07:08:27.159Z,11.6
2018-09-28T07:09:27.179Z,10.6
2018-09-28T07:10:27.236Z,10.3
2018-09-28T07:11:27.454Z,10.4
2018-09-28T07:12:27.502Z,10.6
2018-09-28T07:13:27.423Z,9.7
2018-09-28T07:14:45.589Z,9.6
2018-09-28T07:15:27.850Z,9.5
2018-09-28T07:16:28.064Z,10.4
2018-09-28T07:17:27.878Z,10.6
2018-09-28T07:18:28.032Z,11.1
2018-09-28T07:19:28.288Z,9.6
2018-09-28T07:20:28.283Z,11.2
2018-09-28T07:21:28.279Z,9.5
2018-09-28T07:22:28.317Z,12.1
2018-09-28T07:23:28.310Z,12.6
2018-09-28T07:24:28.402Z,11.6
2018-09-28T07:25:28.354Z,10.6
2018-09-28T07:26:46.514Z,10.9
2018-09-28T07:27:28.619Z,10
2018-09-28T07:28:28.545Z,11.9
2018-09-28T07:29:28.747Z,12.8
2018-09-28T07:30:28.780Z,12.6
2018-09-28T07:31:29.027Z,13.7
2018-09-28T07:32:28.856Z,13.6
2018-09-28T07:33:46.801Z,13.5
2018-09-28T07:34:29.036Z,13.1
2018-09-28T07:35:46.969Z,15.8
2018-09-28T07:36:29.151Z,14.5
2018-09-28T07:37:29.230Z,14.8
2018-09-28T07:38:29.009Z,16.5
2018-09-28T07:39:29.176Z,15.2
2018-09-28T07:40:29.219Z,16.1
2018-09-28T07:41:29.318Z,16
2018-09-28T07:42:29.296Z,18.5
2018-09-28T07:43:29.431Z,17
2018-09-28T07:44:47.522Z,18.5
2018-09-28T07:45:29.812Z,18.9
2018-09-28T07:46:29.848Z,18.6
2018-09-28T07:47:29.870Z,19.200001
2018-09-28T07:48:29.856Z,18.700001
2018-09-28T07:49:30.149Z,18.1
2018-09-28T07:50:30.198Z,17.799999
2018-09-28T07:51:30.170Z,18.799999
2018-09-28T07:52:30.369Z,19.200001
2018-09-28T07:53:30.516Z,20.700001
2018-09-28T07:55:30.585Z,21.9
2018-09-28T07:56:30.684Z,20.6
2018-09-28T07:57:31.112Z,20.6
2018-09-28T07:58:48.828Z,21.1
2018-09-28T07:59:30.944Z,21.4
2018-09-28T08:00:31.046Z,21.6
2018-09-28T08:01:31.358Z,21.1
2018-09-28T08:02:31.508Z,21.4
2018-09-28T08:03:31.456Z,21.700001
2018-09-28T08:04:31.590Z,21.5
2018-09-28T08:05:31.859Z,21.4
2018-09-28T08:06:50.045Z,21.9
2018-09-28T08:07:31.967Z,23.200001
2018-09-28T08:08:31.944Z,21.799999
2018-09-28T08:09:32.161Z,21.9
2018-09-28T08:10:32.206Z,21.700001
2018-09-28T08:11:32.182Z,22.5
2018-09-28T08:12:32.355Z,22.700001
2018-09-28T08:13:32.507Z,19.6
2018-09-28T08:15:32.572Z,22.200001
2018-09-28T08:16:32.733Z,21.200001
2018-09-28T08:17:32.981Z,22.200001
2018-09-28T08:18:32.983Z,22.4
2018-09-28T08:19:32.941Z,21.799999
2018-09-28T08:20:33.092Z,21.4
2018-09-28T08:21:33.297Z,20.9
2018-09-28T08:22:33.336Z,21.5
2018-09-28T08:23:33.359Z,22.1
2018-09-28T08:24:33.458Z,19.9
2018-09-28T08:25:33.513Z,20.200001
2018-09-28T08:26:51.431Z,20.799999
2018-09-28T08:27:33.540Z,21.4
2018-09-28T08:28:33.794Z,20.9
2018-09-28T08:29:33.758Z,21.6
2018-09-28T08:31:33.855Z,21.200001
2018-09-28T08:32:34.138Z,21.5
2018-09-28T08:33:34.320Z,21.200001
2018-09-28T08:36:14.782Z,21.299999
2018-09-28T08:36:30.814Z,21
2018-09-28T08:37:30.937Z,20.200001
2018-09-28T08:38:31.155Z,22.1
2018-09-28T08:39:31.244Z,21.200001
2018-09-28T08:40:31.023Z,20.9
2018-09-28T08:41:31.281Z,20.9
2018-09-28T08:42:49.319Z,19.9
2018-09-28T08:43:31.323Z,20.1
2018-09-28T08:44:31.291Z,22.1
2018-09-28T08:45:31.591Z,20
2018-09-28T08:46:31.581Z,19.9
2018-09-28T08:47:49.457Z,20.1
2018-09-28T09:04:40.723Z,20.1
2018-09-28T09:05:14.564Z,20.4
2018-09-28T09:05:56.672Z,22.4
2018-09-28T09:06:56.798Z,22.299999
2018-09-28T09:07:57.044Z,20.5
2018-09-28T09:08:57.196Z,21.1
2018-09-28T09:09:57.193Z,20.799999
2018-09-28T09:10:57.177Z,20.299999
2018-09-28T09:11:57.380Z,22.5
2018-09-28T09:12:57.504Z,20.4
2018-09-28T09:13:57.483Z,21.9
2018-09-28T09:14:57.667Z,22.299999
2018-09-28T09:15:57.782Z,21.9
2018-09-28T09:16:57.817Z,21.6
2018-09-28T09:17:57.803Z,21.5
2018-09-28T09:18:57.956Z,21.799999
2018-09-28T09:19:58.066Z,22.4
2018-09-28T09:20:58.223Z,22.1
2018-09-28T09:21:58.144Z,21.700001
2018-09-28T09:22:58.119Z,21.4
2018-09-28T09:23:58.425Z,22.1
2018-09-28T09:24:58.554Z,21
2018-09-28T09:25:58.369Z,20.799999
2018-09-28T09:26:58.499Z,21
2018-09-28T09:28:58.924Z,21.9
2018-09-28T09:29:58.745Z,20.9
2018-09-28T09:30:59.020Z,20.9
2018-09-28T09:31:59.332Z,19.6
2018-09-28T09:33:17.034Z,20.4
2018-09-28T09:33:59.188Z,20.6
2018-09-28T09:34:59.257Z,20
2018-09-28T09:35:59.352Z,20.9
2018-09-28T09:36:59.637Z,20.5
2018-09-28T09:37:59.444Z,21.6
2018-09-28T09:38:59.748Z,20.299999
2018-09-28T09:39:59.875Z,20.299999
2018-09-28T09:40:59.936Z,19.799999
2018-09-28T09:41:59.930Z,20.1
2018-09-28T09:43:00.105Z,20.299999
2018-09-28T09:44:00.007Z,20.6
2018-09-28T09:45:00.208Z,19.5
2018-09-28T09:46:17.937Z,21.200001
2018-09-28T09:47:00.220Z,20.700001
2018-09-28T09:49:00.279Z,20.799999
2018-09-28T09:50:00.371Z,20.799999
2018-09-28T09:51:18.249Z,20.200001
2018-09-28T09:52:18.300Z,20.5
2018-09-28T09:53:00.501Z,20.1
2018-09-28T09:55:41.520Z,21
2018-09-28T09:56:15.365Z,21.4
2018-09-28T09:56:57.788Z,20.9
2018-09-28T09:57:57.633Z,20.799999
2018-09-28T09:58:57.731Z,21.4
2018-09-28T10:01:28.015Z,20.799999
2018-09-28T10:02:44.034Z,20.1
2018-09-28T10:03:44.231Z,20.4
2018-09-28T10:04:44.313Z,20.200001
2018-09-28T10:06:02.181Z,19.700001
2018-09-28T10:06:44.324Z,20.5
2018-09-28T10:09:07.658Z,19.5
2018-09-28T10:09:23.613Z,19.799999
2018-09-28T10:10:23.895Z,19.299999
2018-09-28T10:11:23.958Z,19.6
2018-09-28T10:12:24.029Z,21.200001
2018-09-28T10:13:24.037Z,19.799999
2018-09-28T10:15:24.267Z,19.299999
2018-09-28T10:16:24.206Z,21.5
2018-09-28T10:18:24.544Z,19.299999
2018-09-28T10:24:01.096Z,18.9
2018-09-28T10:25:17.177Z,19.299999
2018-09-28T10:26:35.252Z,18.5
2018-09-28T10:27:35.636Z,18.5
2018-09-28T10:29:17.436Z,18
2018-09-28T10:30:17.646Z,17.799999
2018-09-28T10:31:35.826Z,17.5
2018-09-28T10:32:35.546Z,18.299999
2018-09-28T10:33:17.754Z,19.700001
2018-09-28T10:34:17.853Z,19.5
2018-09-28T10:35:18.192Z,17
2018-09-28T10:36:17.988Z,18.4
2018-09-28T10:37:18.045Z,18.299999
2018-09-28T10:38:18.220Z,18.799999
2018-09-28T10:39:18.243Z,18.700001
2018-09-28T10:41:59.044Z,18.9
2018-09-28T10:42:14.993Z,19.4
2018-09-28T10:43:15.330Z,17.4
2018-09-28T10:44:15.250Z,17.4
2018-09-28T10:45:33.230Z,17.700001
2018-09-28T10:46:33.477Z,17.799999
2018-09-28T10:47:33.833Z,19.6
2018-09-28T10:48:33.428Z,18
2018-09-28T10:49:15.656Z,19.9
2018-09-28T10:50:33.651Z,19
2018-09-28T10:51:33.585Z,17.700001
2018-09-28T10:52:33.632Z,18.799999
2018-09-28T10:53:15.867Z,18.9
2018-09-28T10:54:15.879Z,18.799999
2018-09-28T10:55:15.913Z,18.5
2018-09-28T10:56:16.952Z,18.799999
2018-09-28T10:57:16.340Z,18.5
2018-09-28T10:58:34.905Z,17.799999
2018-09-28T10:59:15.964Z,16.700001
2018-09-28T11:00:16.156Z,17.700001
2018-09-28T11:01:34.308Z,18.4
2018-09-28T11:02:16.366Z,18.700001
2018-09-28T11:03:16.452Z,18.4
2018-09-28T11:04:16.583Z,19
2018-09-28T11:05:16.532Z,20.200001
2018-09-28T11:06:34.441Z,21.9
2018-09-28T11:07:34.537Z,21.4
2018-09-28T11:09:16.826Z,20.299999
2018-09-28T11:10:16.776Z,19.9
2018-09-28T11:11:16.873Z,20.5
2018-09-28T11:12:17.083Z,20.799999
2018-09-28T11:13:17.216Z,19.200001
2018-09-28T11:14:17.243Z,20.4
2018-09-28T11:15:17.226Z,21.200001
2018-09-28T11:16:35.247Z,21.6
2018-09-28T11:17:35.261Z,20.299999
2018-09-28T11:18:35.465Z,21.6
2018-09-28T11:19:17.448Z,20.700001
2018-09-28T11:20:17.532Z,21.200001
2018-09-28T11:21:35.500Z,21.1
2018-09-28T11:22:17.623Z,20.200001
2018-09-28T11:23:17.830Z,20.200001
2018-09-28T11:24:17.904Z,17.9
2018-09-28T11:25:18.007Z,18.4
2018-09-28T11:26:18.002Z,19.6
2018-09-28T11:27:36.043Z,18.5
2018-09-28T11:28:36.135Z,20
2018-09-28T11:29:18.336Z,18.700001
2018-09-28T11:30:18.333Z,19.5
2018-09-28T11:31:18.285Z,19.5
2018-09-28T11:32:18.444Z,19.799999
2018-09-28T11:33:18.757Z,20.1
2018-09-28T11:34:37.839Z,18.200001
2018-09-28T11:35:18.804Z,18.299999
2018-09-28T11:36:18.878Z,19.799999
2018-09-28T11:37:18.970Z,19.1
2018-09-28T11:38:18.931Z,19.5
2018-09-28T11:39:19.110Z,18.700001
2018-09-28T11:40:37.325Z,18.1
2018-09-28T11:41:37.189Z,17.9
2018-09-28T11:42:19.343Z,17.799999
2018-09-28T11:43:19.474Z,16.700001
2018-09-28T11:44:19.605Z,16.799999
2018-09-28T11:45:19.624Z,17.200001
2018-09-28T11:46:19.513Z,18.200001
2018-09-28T11:47:19.820Z,16.6
2018-09-28T11:48:19.896Z,17.1
2018-09-28T11:50:19.920Z,14.8
2018-09-28T11:51:20.181Z,15.1
2018-09-28T11:52:20.266Z,15.4
2018-09-28T11:53:20.224Z,15.4
2018-09-28T11:54:38.316Z,15.8
2018-09-28T11:55:20.414Z,14.8
2018-09-28T11:56:20.736Z,14.4
2018-09-28T11:57:20.997Z,15.9
2018-09-28T11:58:20.741Z,16.1
2018-09-28T11:59:38.802Z,15.5
2018-09-28T12:00:20.922Z,16.799999
2018-09-28T12:01:20.911Z,15.9
2018-09-28T12:07:17.510Z,15.5
2018-09-28T12:07:33.534Z,15.6
2018-09-28T12:08:51.484Z,17.1
2018-09-28T12:09:51.545Z,14.6
2018-09-28T12:35:39.278Z,15.3
2018-09-28T12:36:31.115Z,15.2
2018-09-28T12:36:55.364Z,21.200001
2018-09-28T12:38:13.154Z,21.9
2018-09-28T12:38:55.439Z,22.200001
2018-09-28T12:40:13.231Z,21.4
2018-09-28T12:40:55.510Z,21.200001
2018-09-28T12:41:55.595Z,20.200001
2018-09-28T12:43:55.664Z,21
2018-09-28T12:44:55.730Z,18.799999
2018-09-28T12:45:55.665Z,19.6
2018-09-28T12:46:55.560Z,18.6
2018-09-28T12:47:55.633Z,18.1
2018-09-28T12:48:55.753Z,18.5
2018-09-28T12:49:55.833Z,18.700001
2018-09-28T12:50:55.906Z,17.5
2018-09-28T12:51:56.043Z,16.799999
2018-09-28T12:53:14.190Z,17.799999
2018-09-28T12:53:56.096Z,18.799999
2018-09-28T12:54:56.250Z,17.299999
2018-09-28T12:56:14.240Z,19.1
2018-09-28T12:56:56.571Z,17.799999
2018-09-28T12:57:56.515Z,17.6
2018-09-28T12:58:56.575Z,16.6
2018-09-28T12:59:56.700Z,16.4
2018-09-28T13:00:57.100Z,17
2018-09-28T13:01:56.895Z,16
2018-09-28T13:02:56.980Z,15.9
2018-09-28T13:04:15.077Z,15.5
2018-09-28T13:04:57.550Z,17.4
